Time;durP1;ratioP1;P1;durP2;ratioP2;P2;SDS_P1;SDS_P2;PMS_P1;PMS_P2;Temp;Humidity;BMP_temperature;BMP_pressure;BME280_temperature;BME280_humidity;BME280_pressure;Samples;Min_cycle;Max_cycle;Signal;HPM_P1;HPM_P2
2023/06/26 00:01:31;;;;;;;41.10;25.65;;;;;;;20.53;97.49;101069.16;5055584;28;20106;-47
2023/06/26 00:03:57;;;;;;;39.80;26.73;;;;;;;20.47;95.48;101080.50;5054959;28;20021;-48
2023/06/26 00:06:25;;;;;;;32.95;22.17;;;;;;;21.01;87.49;101077.44;5055432;28;20111;-42
2023/06/26 00:08:52;;;;;;;34.63;21.95;;;;;;;21.23;86.28;101072.00;5055348;28;20419;-47
2023/06/26 00:11:18;;;;;;;33.50;22.13;;;;;;;21.20;86.16;101072.00;5055007;28;20075;-46
2023/06/26 00:13:43;;;;;;;31.63;21.13;;;;;;;21.43;83.19;101063.03;5055016;28;20029;-45
2023/06/26 00:16:08;;;;;;;33.25;22.10;;;;;;;21.49;82.16;101074.28;5054792;28;20059;-46
2023/06/26 00:18:33;;;;;;;31.67;20.70;;;;;;;21.58;81.30;101062.00;5055167;28;20372;-47
2023/06/26 00:20:59;;;;;;;32.53;20.77;;;;;;;21.60;81.49;101065.47;5055247;28;20049;-48
2023/06/26 00:23:24;;;;;;;32.38;21.33;;;;;;;21.58;80.46;101068.09;5054384;28;20052;-43
2023/06/26 00:25:50;;;;;;;34.42;21.75;;;;;;;21.51;83.51;101069.03;5054274;28;20124;-47
2023/06/26 00:28:16;;;;;;;30.42;20.75;;;;;;;21.61;80.86;101061.94;5055131;28;20099;-47
2023/06/26 00:30:41;;;;;;;34.42;21.85;;;;;;;21.58;81.11;101067.25;5054276;28;20032;-48
2023/06/26 00:33:06;;;;;;;34.33;21.75;;;;;;;21.58;80.69;101060.25;5055107;28;20047;-45
2023/06/26 00:35:31;;;;;;;31.83;20.50;;;;;;;21.52;81.66;101068.16;5054698;28;20472;-47
2023/06/26 00:37:57;;;;;;;35.28;21.92;;;;;;;21.47;80.77;101064.72;5054319;28;20048;-46
2023/06/26 00:40:22;;;;;;;36.05;22.50;;;;;;;21.46;80.73;101058.63;5054668;28;20108;-42
2023/06/26 00:42:48;;;;;;;36.42;23.05;;;;;;;21.44;80.28;101054.28;5054755;28;20025;-46
2023/06/26 00:45:13;;;;;;;34.90;22.85;;;;;;;21.50;80.56;101054.19;5054281;28;20028;-47
2023/06/26 00:47:38;;;;;;;37.30;23.02;;;;;;;21.50;79.64;101062.06;5054578;28;20025;-46
2023/06/26 00:50:04;;;;;;;37.47;23.17;;;;;;;21.49;80.33;101070.81;5054830;28;20463;-47
2023/06/26 00:52:31;;;;;;;36.75;23.13;;;;;;;21.49;79.32;101066.44;5053678;28;20110;-46
2023/06/26 00:54:57;;;;;;;38.25;23.33;;;;;;;21.49;79.01;101074.28;5054520;28;20071;-45
2023/06/26 00:57:22;;;;;;;37.58;23.05;;;;;;;21.50;79.04;101064.69;5054264;28;20020;-43
2023/06/26 00:59:49;;;;;;;36.92;22.08;;;;;;;21.48;78.79;101066.44;5053914;28;20043;-45
2023/06/26 01:02:17;;;;;;;39.53;23.92;;;;;;;21.50;78.79;101072.56;5054712;28;20032;-48
2023/06/26 01:04:46;;;;;;;35.90;21.73;;;;;;;21.48;79.12;101071.69;5054047;28;20552;-45
2023/06/26 01:07:13;;;;;;;39.40;23.75;;;;;;;21.45;78.95;101071.75;5053678;28;20582;-45
2023/06/26 01:09:39;;;;;;;36.45;23.77;;;;;;;21.42;79.50;101077.00;5054150;28;20078;-47
2023/06/26 01:12:04;;;;;;;43.47;24.00;;;;;;;21.36;79.88;101075.34;5054196;28;20436;-44
2023/06/26 01:14:32;;;;;;;38.95;24.17;;;;;;;21.34;80.09;101080.59;5053102;28;20119;-44
2023/06/26 01:16:59;;;;;;;38.95;24.27;;;;;;;21.26;80.79;101082.44;5054368;28;20032;-48
2023/06/26 01:19:28;;;;;;;;;;;;;;;21.30;80.11;101094.59;5053601;28;20116;-46
2023/06/26 01:22:14;;;;;;;40.50;24.27;;;;;;;21.17;81.48;101090.41;5054197;28;19987;-47
2023/06/26 01:24:44;;;;;;;47.08;25.75;;;;;;;21.10;81.61;101083.50;5053742;28;20033;-46
2023/06/26 01:27:11;;;;;;;37.15;23.95;;;;;;;21.01;81.13;101084.44;5053483;28;20032;-47
2023/06/26 01:29:37;;;;;;;38.97;23.77;;;;;;;20.96;81.51;101083.63;5053749;28;20032;-47
2023/06/26 01:32:03;;;;;;;39.28;22.83;;;;;;;20.90;81.02;101095.03;5053729;28;20283;-46
2023/06/26 01:34:29;;;;;;;38.08;22.83;;;;;;;20.89;81.34;101103.78;5052736;28;20025;-46
2023/06/26 01:36:55;;;;;;;39.85;23.35;;;;;;;20.82;81.80;101102.09;5053558;28;20025;-47
2023/06/26 01:39:20;;;;;;;36.40;21.67;;;;;;;20.77;81.89;101098.66;5053902;28;20027;-46
2023/06/26 01:41:46;;;;;;;33.22;20.17;;;;;;;20.63;82.88;101103.97;5052573;28;20044;-48
2023/06/26 01:44:26;;;;;;;30.02;18.25;;;;;;;20.62;81.87;101105.72;5053727;28;20036;-44
2023/06/26 01:46:57;;;;;;;32.97;19.13;;;;;;;20.52;82.04;101104.91;5053661;28;20461;-47
2023/06/26 01:49:51;;;;;;;30.92;16.63;;;;;;;20.56;81.28;101119.72;5052546;28;20135;-46
2023/06/26 01:52:30;;;;;;;32.67;16.83;;;;;;;20.50;81.19;101121.50;5053517;28;20477;-47
2023/06/26 01:55:03;;;;;;;27.83;14.95;;;;;;;20.46;81.56;101130.28;5052843;28;20037;-48
2023/06/26 01:57:31;;;;;;;25.75;15.20;;;;;;;20.39;81.94;101125.06;5053220;28;20033;-42
2023/06/26 01:59:56;;;;;;;;;;;;;;;20.43;80.97;101136.41;5053785;28;20039;-46
2023/06/26 02:02:24;;;;;;;29.83;15.18;;;;;;;20.26;82.29;101133.91;5052771;28;19912;-44
2023/06/26 02:04:49;;;;;;;34.97;15.07;;;;;;;20.22;83.07;101124.34;5053491;28;20039;-46
2023/06/26 02:07:15;;;;;;;29.45;15.35;;;;;;;20.20;84.35;101131.31;5053363;28;20029;-46
2023/06/26 02:09:40;;;;;;;30.25;15.18;;;;;;;20.12;83.68;101135.72;5052259;28;20021;-46
2023/06/26 02:12:06;;;;;;;30.90;15.38;;;;;;;20.11;83.90;101129.59;5053341;28;20029;-46
2023/06/26 02:14:31;;;;;;;31.00;16.05;;;;;;;20.03;84.20;101126.19;5052704;28;20033;-48
2023/06/26 02:16:56;;;;;;;32.00;15.00;;;;;;;20.00;83.92;101129.69;5052551;28;20104;-46
2023/06/26 02:19:22;;;;;;;28.10;13.43;;;;;;;19.92;84.27;101117.50;5053186;28;20373;-47
2023/06/26 02:21:49;;;;;;;35.08;15.00;;;;;;;19.94;84.20;101121.84;5052870;28;20131;-48
2023/06/26 02:24:15;;;;;;;27.85;13.55;;;;;;;19.88;84.47;101119.25;5052436;28;20021;-48
2023/06/26 02:26:40;;;;;;;33.30;12.95;;;;;;;19.81;85.30;101122.75;5052619;28;20024;-46
2023/06/26 02:29:05;;;;;;;31.85;13.07;;;;;;;19.79;85.28;101127.13;5052995;28;20025;-46
2023/06/26 02:31:31;;;;;;;32.60;14.20;;;;;;;19.74;85.26;101124.50;5051846;28;20066;-45
2023/06/26 02:33:56;;;;;;;36.08;14.68;;;;;;;19.69;84.70;101129.78;5052893;28;20032;-46
2023/06/26 02:36:21;;;;;;;23.92;12.52;;;;;;;19.63;85.18;101129.78;5052992;28;20051;-47
2023/06/26 02:38:47;;;;;;;27.85;14.18;;;;;;;19.63;85.93;101132.41;5051706;28;20032;-47
2023/06/26 02:41:12;;;;;;;24.73;13.02;;;;;;;19.58;85.97;101136.78;5052694;28;20515;-46
2023/06/26 02:43:37;;;;;;;34.38;13.85;;;;;;;19.55;85.56;101142.03;5052214;28;20085;-42
2023/06/26 02:46:03;;;;;;;35.15;13.50;;;;;;;19.54;85.72;101146.38;5052545;28;20025;-47
2023/06/26 02:48:28;;;;;;;33.33;13.23;;;;;;;19.47;85.81;101147.28;5051947;28;20417;-48
2023/06/26 02:50:53;;;;;;;27.42;12.82;;;;;;;19.44;86.51;101149.03;5051952;28;20095;-48
2023/06/26 02:53:19;;;;;;;35.97;14.52;;;;;;;19.38;87.19;101148.16;5052642;28;20032;-46
2023/06/26 02:55:44;;;;;;;26.88;13.88;;;;;;;19.31;87.78;101153.41;5052440;28;20052;-43
2023/06/26 02:58:09;;;;;;;29.58;13.75;;;;;;;19.25;88.47;101160.38;5051791;28;20519;-47
2023/06/26 03:00:35;;;;;;;29.60;14.05;;;;;;;19.19;88.66;101167.38;5052540;28;20056;-46
2023/06/26 03:03:00;;;;;;;31.75;14.38;;;;;;;19.18;89.62;101173.47;5052585;28;20021;-47
2023/06/26 03:05:26;;;;;;;28.08;14.70;;;;;;;19.17;89.55;101169.09;5051621;28;20465;-47
2023/06/26 03:07:51;;;;;;;31.40;15.40;;;;;;;19.12;89.83;101169.13;5052461;28;20100;-43
2023/06/26 03:10:16;;;;;;;33.35;14.55;;;;;;;19.06;89.96;101172.59;5052585;28;20488;-43
2023/06/26 03:12:43;;;;;;;30.25;15.05;;;;;;;19.04;90.25;101165.63;5051495;28;20070;-42
2023/06/26 03:15:08;;;;;;;31.55;14.65;;;;;;;18.96;89.89;101170.00;5052369;28;20036;-45
2023/06/26 03:17:34;;;;;;;30.25;12.75;;;;;;;18.95;89.63;101170.84;5052355;28;20021;-44
2023/06/26 03:19:59;;;;;;;27.95;13.77;;;;;;;18.91;89.99;101167.38;5051679;28;20028;-44
2023/06/26 03:22:24;;;;;;;34.53;13.55;;;;;;;18.86;90.34;101171.69;5052109;28;20087;-44
2023/06/26 03:24:50;;;;;;;37.72;13.85;;;;;;;18.84;90.62;101170.81;5052364;28;20380;-43
2023/06/26 03:27:15;;;;;;;26.60;13.00;;;;;;;18.78;91.08;101171.69;5051582;28;20033;-45
2023/06/26 03:29:40;;;;;;;34.10;13.15;;;;;;;18.70;91.04;101171.66;5052170;28;20056;-45
2023/06/26 03:32:06;;;;;;;33.40;12.73;;;;;;;18.72;91.36;101175.16;5052666;28;20484;-43
2023/06/26 03:34:31;;;;;;;26.00;13.38;;;;;;;18.68;91.98;101170.81;5051705;28;20025;-46
2023/06/26 03:36:57;;;;;;;32.70;13.02;;;;;;;18.64;92.10;101169.03;5052195;28;20024;-44
2023/06/26 03:39:22;;;;;;;29.70;12.60;;;;;;;18.63;92.39;101164.72;5052197;28;20036;-43
2023/06/26 03:41:48;;;;;;;33.65;13.52;;;;;;;18.57;92.94;101168.16;5051544;28;20044;-46
2023/06/26 03:44:13;;;;;;;31.80;12.80;;;;;;;18.56;93.38;101165.56;5052335;28;20032;-45
2023/06/26 03:46:38;;;;;;;30.63;12.73;;;;;;;18.54;93.18;101167.28;5051890;28;20365;-43
2023/06/26 03:49:03;;;;;;;35.00;13.23;;;;;;;18.52;93.71;101172.50;5051584;28;20036;-45
2023/06/26 03:51:29;;;;;;;30.48;12.55;;;;;;;18.49;94.58;101174.22;5051749;28;20021;-45
2023/06/26 03:53:54;;;;;;;30.20;13.00;;;;;;;18.47;95.27;101183.81;5052034;28;20036;-43
2023/06/26 03:56:20;;;;;;;33.15;12.93;;;;;;;18.37;95.67;101180.31;5051432;28;20029;-44
2023/06/26 03:58:45;;;;;;;28.15;12.73;;;;;;;18.34;96.43;101181.16;5051571;28;20029;-42
2023/06/26 04:01:10;;;;;;;33.47;13.50;;;;;;;18.34;97.62;101181.16;5052267;28;20032;-42
2023/06/26 04:03:35;;;;;;;40.67;13.82;;;;;;;18.33;98.22;101187.25;5055282;28;20401;-42
2023/06/26 04:06:01;;;;;;;38.83;14.27;;;;;;;18.29;99.20;101201.16;5055681;28;20028;-42
2023/06/26 04:08:26;;;;;;;34.05;13.13;;;;;;;18.32;100.00;101202.91;5054495;28;20017;-42
2023/06/26 04:10:52;;;;;;;38.70;14.20;;;;;;;18.31;100.00;101212.47;5055546;28;20366;-43
2023/06/26 04:13:17;;;;;;;40.40;13.45;;;;;;;18.35;100.00;101213.38;5055163;28;20169;-47
2023/06/26 04:15:43;;;;;;;35.58;13.75;;;;;;;18.33;100.00;101220.31;5054405;28;20496;-42
2023/06/26 04:18:08;;;;;;;36.45;14.43;;;;;;;18.36;100.00;101223.81;5055201;28;20470;-41
2023/06/26 04:20:39;;;;;;;46.63;14.32;;;;;;;18.37;100.00;101217.72;5054963;28;20436;-44
2023/06/26 04:23:04;;;;;;;38.72;14.10;;;;;;;18.37;100.00;101222.94;5054316;28;20439;-42
2023/06/26 04:25:29;;;;;;;40.00;14.95;;;;;;;18.39;100.00;101218.59;5054955;28;20087;-43
2023/06/26 04:27:55;;;;;;;44.72;14.18;;;;;;;18.41;100.00;101229.91;5055241;28;20025;-43
2023/06/26 04:30:20;;;;;;;38.42;13.65;;;;;;;18.42;100.00;101226.44;5054338;28;20029;-44
2023/06/26 04:32:45;;;;;;;46.58;15.77;;;;;;;18.46;100.00;101229.91;5054693;28;20025;-46
2023/06/26 04:35:11;;;;;;;36.25;13.68;;;;;;;18.52;100.00;101227.31;5054877;28;20086;-44
2023/06/26 04:37:36;;;;;;;42.70;14.10;;;;;;;18.58;100.00;101229.09;5053916;28;20112;-46
2023/06/26 04:40:03;;;;;;;43.28;14.60;;;;;;;18.57;100.00;101222.13;5054839;28;20021;-42
2023/06/26 04:42:29;;;;;;;42.13;12.98;;;;;;;18.62;100.00;101233.44;5054471;28;20045;-42
2023/06/26 04:44:54;;;;;;;40.47;13.57;;;;;;;18.65;100.00;101232.59;5054147;28;20071;-42
2023/06/26 04:47:20;;;;;;;46.55;14.82;;;;;;;18.64;100.00;101231.69;5054716;28;20063;-42
2023/06/26 04:49:45;;;;;;;43.20;13.48;;;;;;;18.65;100.00;101238.66;5054413;28;20029;-44
2023/06/26 04:52:14;;;;;;;47.50;13.43;;;;;;;18.64;100.00;101242.13;5054013;28;20021;-43
2023/06/26 04:54:39;;;;;;;39.05;13.40;;;;;;;18.66;100.00;101256.06;5054108;28;20033;-44
2023/06/26 04:57:05;;;;;;;33.95;11.63;;;;;;;18.67;100.00;101252.59;5054371;28;20287;-44
2023/06/26 04:59:31;;;;;;;35.22;13.60;;;;;;;18.68;100.00;101254.34;5053619;28;20029;-44
2023/06/26 05:01:56;;;;;;;31.88;11.38;;;;;;;18.66;100.00;101250.84;5054607;28;20086;-42
2023/06/26 05:04:22;;;;;;;36.63;11.25;;;;;;;18.68;100.00;101254.34;5053700;28;20048;-44
2023/06/26 05:06:48;;;;;;;30.48;11.43;;;;;;;18.70;100.00;101254.34;5054310;28;20381;-44
2023/06/26 05:09:13;;;;;;;36.90;11.40;;;;;;;18.72;100.00;101258.72;5054247;28;20492;-42
2023/06/26 05:11:39;;;;;;;41.42;12.75;;;;;;;18.69;100.00;101269.13;5052567;28;20799;-43
2023/06/26 05:14:06;;;;;;;35.05;11.52;;;;;;;18.74;100.00;101272.63;5054201;28;20048;-42
2023/06/26 05:16:32;;;;;;;36.05;12.20;;;;;;;18.73;100.00;101278.75;5053980;28;20025;-42
2023/06/26 05:18:58;;;;;;;38.15;11.95;;;;;;;18.76;100.00;101283.97;5053415;28;20079;-47
2023/06/26 05:21:23;;;;;;;31.85;11.32;;;;;;;18.74;100.00;101283.06;5053650;28;20041;-43
2023/06/26 05:23:51;;;;;;;36.17;10.95;;;;;;;18.76;100.00;101283.97;5053912;28;20025;-43
2023/06/26 05:26:17;;;;;;;24.73;10.90;;;;;;;18.83;100.00;101289.19;5053152;28;20397;-42
2023/06/26 05:28:48;;;;;;;37.60;12.13;;;;;;;18.82;100.00;101282.22;5053768;28;20039;-43
2023/06/26 05:31:13;;;;;;;26.90;10.80;;;;;;;18.89;100.00;101284.91;5054074;28;20357;-43
2023/06/26 05:33:42;;;;;;;33.60;10.15;;;;;;;18.91;100.00;101287.50;5052581;28;20480;-44
2023/06/26 05:36:09;;;;;;;30.95;9.80;;;;;;;18.97;100.00;101286.66;5053757;28;20500;-44
2023/06/26 05:38:35;;;;;;;29.60;10.57;;;;;;;19.00;100.00;101292.75;5053395;28;20090;-46
2023/06/26 05:41:00;;;;;;;25.92;10.40;;;;;;;19.08;100.00;101296.25;5052802;28;20423;-41
2023/06/26 05:43:26;;;;;;;23.83;8.77;;;;;;;19.14;100.00;101299.75;5053323;28;20036;-46
2023/06/26 05:45:51;;;;;;;27.98;8.63;;;;;;;19.10;100.00;101304.09;5053989;28;20024;-42
2023/06/26 05:48:16;;;;;;;22.30;7.97;;;;;;;19.07;100.00;101299.72;5052821;28;20036;-43
2023/06/26 05:50:43;;;;;;;27.83;8.40;;;;;;;19.11;100.00;101311.06;5053349;28;20431;-42
2023/06/26 05:53:09;;;;;;;34.03;9.15;;;;;;;19.11;100.00;101318.00;5053561;28;20032;-43
2023/06/26 05:55:35;;;;;;;31.67;8.25;;;;;;;19.15;99.84;101322.41;5052355;28;20159;-43
2023/06/26 05:58:02;;;;;;;22.65;7.28;;;;;;;19.14;99.34;101315.41;5053233;28;20043;-43
2023/06/26 06:00:28;;;;;;;22.73;7.10;;;;;;;19.16;98.02;101322.38;5053262;28;20028;-42
2023/06/26 06:02:53;;;;;;;22.70;7.25;;;;;;;19.17;97.06;101320.63;5052538;28;20020;-44
2023/06/26 06:05:20;;;;;;;24.42;7.63;;;;;;;19.21;96.04;101328.50;5053228;28;20453;-42
2023/06/26 06:07:45;;;;;;;24.80;7.13;;;;;;;19.17;93.83;101328.47;5052235;28;20036;-46
2023/06/26 06:10:10;;;;;;;24.65;6.72;;;;;;;19.23;94.80;101331.09;5053013;28;20025;-42
2023/06/26 06:12:36;;;;;;;22.05;6.90;;;;;;;19.29;94.70;101343.28;5052924;28;20036;-42
2023/06/26 06:15:01;;;;;;;18.30;6.20;;;;;;;19.36;94.48;101343.31;5052102;28;20075;-42
2023/06/26 06:17:26;;;;;;;19.02;5.80;;;;;;;19.40;92.50;101339.81;5052726;28;20051;-42
2023/06/26 06:19:52;;;;;;;19.15;5.50;;;;;;;19.46;93.19;101348.53;5053004;28;20383;-42
2023/06/26 06:22:17;;;;;;;17.23;5.63;;;;;;;19.52;91.97;101351.16;5052002;28;20040;-44
2023/06/26 06:24:43;;;;;;;18.25;5.60;;;;;;;19.63;92.71;101356.41;5052033;28;20032;-43
2023/06/26 06:27:09;;;;;;;19.00;5.70;;;;;;;19.59;89.16;101355.53;5052858;28;20033;-45
2023/06/26 06:29:34;;;;;;;15.80;5.25;;;;;;;19.74;90.55;101357.25;5051673;28;20119;-44
2023/06/26 06:31:59;;;;;;;24.02;6.78;;;;;;;19.79;89.01;101365.97;5052823;28;20028;-42
2023/06/26 06:34:25;;;;;;;20.55;5.78;;;;;;;19.76;87.65;101359.91;5052531;28;20135;-41
2023/06/26 06:36:50;;;;;;;17.17;5.30;;;;;;;19.76;88.65;101355.53;5051913;28;20112;-45
2023/06/26 06:39:16;;;;;;;20.52;5.70;;;;;;;19.78;87.67;101365.97;5052996;28;20025;-42
2023/06/26 06:41:42;;;;;;;17.15;5.95;;;;;;;19.79;87.44;101358.13;5052401;28;20020;-45
2023/06/26 06:44:07;;;;;;;18.63;5.10;;;;;;;19.84;86.67;101366.88;5051990;28;20029;-43
2023/06/26 06:46:32;;;;;;;12.82;4.95;;;;;;;19.90;86.22;101371.25;5052573;28;20021;-43
2023/06/26 06:48:58;;;;;;;20.42;4.97;;;;;;;20.09;87.03;101385.19;5052648;28;20044;-41
2023/06/26 06:51:23;;;;;;;17.67;5.53;;;;;;;20.17;84.23;101387.81;5051483;28;20021;-42
2023/06/26 06:53:48;;;;;;;16.63;5.25;;;;;;;20.32;83.92;101395.63;5052499;28;20544;-47
2023/06/26 06:56:14;;;;;;;18.25;5.35;;;;;;;20.25;82.66;101387.78;5052433;28;20039;-43
2023/06/26 06:58:42;;;;;;;21.38;5.10;;;;;;;20.18;84.31;101387.78;5051664;28;20469;-42
2023/06/26 07:01:07;;;;;;;17.30;5.43;;;;;;;20.33;87.93;101391.25;5052700;28;20029;-40
2023/06/26 07:03:33;;;;;;;17.13;5.10;;;;;;;20.49;85.56;101402.53;5052255;28;20036;-46
2023/06/26 07:05:58;;;;;;;14.40;4.85;;;;;;;20.58;83.76;101407.78;5052228;28;20152;-46
2023/06/26 07:08:23;;;;;;;16.98;4.65;;;;;;;20.89;83.43;101407.69;5052075;28;20492;-43
2023/06/26 07:10:49;;;;;;;14.68;4.82;;;;;;;20.93;81.11;101409.41;5052451;28;20033;-45
2023/06/26 07:13:14;;;;;;;14.80;4.70;;;;;;;21.00;81.71;101416.34;5051722;28;20021;-42
2023/06/26 07:15:39;;;;;;;15.18;4.88;;;;;;;21.16;80.84;101416.28;5052258;28;20391;-42
2023/06/26 07:18:05;;;;;;;18.83;4.97;;;;;;;21.06;80.49;101418.09;5051574;28;20469;-42
2023/06/26 07:20:30;;;;;;;14.35;4.53;;;;;;;21.18;81.91;101419.78;5051987;28;20099;-42
2023/06/26 07:22:55;;;;;;;12.75;4.78;;;;;;;21.22;81.30;101426.75;5052314;28;20120;-43
2023/06/26 07:25:21;;;;;;;14.23;5.03;;;;;;;21.22;79.96;101426.75;5051803;28;20087;-46
2023/06/26 07:27:46;;;;;;;14.45;4.80;;;;;;;21.14;80.46;101439.03;5052147;28;20075;-43
2023/06/26 07:30:12;;;;;;;16.63;5.82;;;;;;;20.94;80.90;101437.38;5052287;28;20033;-48
2023/06/26 07:32:38;;;;;;;15.95;6.53;;;;;;;20.68;82.04;101443.53;5051182;28;20017;-43
2023/06/26 07:35:03;;;;;;;17.33;5.72;;;;;;;20.72;82.22;101440.06;5052922;28;20044;-42
2023/06/26 07:37:29;;;;;;;12.63;5.90;;;;;;;20.99;82.26;101451.31;5055860;28;20040;-46
2023/06/26 07:39:54;;;;;;;15.50;6.38;;;;;;;21.46;83.73;101448.44;5055495;28;20025;-43
2023/06/26 07:42:20;;;;;;;15.60;6.13;;;;;;;21.53;79.92;101455.41;5056110;28;20028;-49
2023/06/26 07:44:45;;;;;;;13.85;6.25;;;;;;;21.49;80.38;101451.06;5055793;28;20029;-43
2023/06/26 07:47:11;;;;;;;16.48;6.82;;;;;;;21.39;80.11;101460.72;5055446;28;20013;-46
2023/06/26 07:49:36;;;;;;;16.05;6.78;;;;;;;21.07;78.49;101463.50;5055608;28;20123;-43
2023/06/26 07:52:02;;;;;;;14.85;7.15;;;;;;;21.13;79.12;101468.72;5055841;28;20488;-45
2023/06/26 07:54:27;;;;;;;13.27;6.40;;;;;;;21.12;76.45;101477.47;5054839;28;20036;-43
2023/06/26 07:56:57;;;;;;;15.05;6.38;;;;;;;21.22;77.34;101479.16;5055687;28;20479;-45
2023/06/26 07:59:24;;;;;;;14.95;5.80;;;;;;;21.42;78.44;101486.06;5055769;28;20021;-43
2023/06/26 08:01:53;;;;;;;17.88;5.95;;;;;;;21.25;73.84;101478.28;5055045;28;20036;-43
2023/06/26 08:04:20;;;;;;;10.50;5.22;;;;;;;21.26;74.64;101475.66;5055557;28;20037;-46
2023/06/26 08:06:49;;;;;;;12.20;5.70;;;;;;;21.20;75.08;101479.19;5055496;28;20020;-43
2023/06/26 08:09:14;;;;;;;14.60;4.88;;;;;;;21.22;74.61;101482.66;5054692;28;20032;-48
2023/06/26 08:11:40;;;;;;;9.88;3.80;;;;;;;21.22;73.60;101489.66;5055070;28;20021;-45
2023/06/26 08:14:05;;;;;;;10.65;3.47;;;;;;;21.16;72.12;101490.56;5055485;28;20501;-43
2023/06/26 08:16:30;;;;;;;7.60;3.17;;;;;;;21.13;71.99;101494.94;5054620;28;20024;-48
2023/06/26 08:18:55;;;;;;;9.02;3.17;;;;;;;21.22;72.52;101497.50;5055162;28;20029;-43
2023/06/26 08:21:21;;;;;;;9.35;2.83;;;;;;;21.12;69.79;101487.94;5054388;28;20076;-44
2023/06/26 08:23:46;;;;;;;11.90;2.80;;;;;;;21.28;72.91;101488.75;5055123;28;20060;-44
2023/06/26 08:26:11;;;;;;;7.72;2.53;;;;;;;21.35;69.54;101500.94;5055248;28;20020;-48
2023/06/26 08:28:37;;;;;;;9.85;2.40;;;;;;;21.39;68.32;101500.06;5054275;28;20131;-43
2023/06/26 08:31:02;;;;;;;11.02;3.22;;;;;;;21.36;67.96;101492.22;5055179;28;20114;-42
2023/06/26 08:33:27;;;;;;;10.35;2.55;;;;;;;21.30;68.64;101495.72;5054620;28;20141;-44
2023/06/26 08:35:53;;;;;;;13.23;2.90;;;;;;;21.50;68.29;101505.25;5054444;28;20483;-48
2023/06/26 08:38:21;;;;;;;10.50;2.50;;;;;;;21.70;67.36;101495.56;5055129;28;20108;-43
2023/06/26 08:40:46;;;;;;;7.00;2.75;;;;;;;21.83;68.99;101498.06;5054743;28;20031;-47
2023/06/26 08:43:12;;;;;;;7.47;2.30;;;;;;;21.90;66.08;101497.16;5054197;28;20029;-44
2023/06/26 08:45:37;;;;;;;9.70;2.70;;;;;;;22.01;64.36;101511.09;5054550;28;20393;-46
2023/06/26 08:48:07;;;;;;;7.78;2.33;;;;;;;21.95;63.47;101516.38;5053860;28;20445;-43
2023/06/26 08:50:34;;;;;;;11.93;2.20;;;;;;;21.71;59.68;101517.41;5053877;28;20079;-42
2023/06/26 08:53:04;;;;;;;11.50;2.28;;;;;;;21.50;60.96;101526.25;5054806;28;20025;-46
2023/06/26 08:55:31;;;;;;;6.18;2.10;;;;;;;21.47;60.27;101526.25;5054488;28;20083;-45
2023/06/26 08:57:57;;;;;;;;;;;;;;;21.69;62.89;101530.53;5054377;28;20100;-43
2023/06/26 09:00:23;;;;;;;14.55;2.28;;;;;;;21.63;60.62;101535.81;5054299;28;20351;-43
2023/06/26 09:02:48;;;;;;;9.73;2.30;;;;;;;21.66;58.08;101533.16;5054362;28;20029;-44
2023/06/26 09:05:13;;;;;;;11.10;2.30;;;;;;;21.81;57.97;101520.84;5053969;28;20381;-43
2023/06/26 09:07:39;;;;;;;8.02;1.88;;;;;;;21.83;58.08;101527.84;5054309;28;20033;-47
2023/06/26 09:10:04;;;;;;;8.18;2.30;;;;;;;21.90;59.87;101527.75;5054387;28;20079;-48
2023/06/26 09:12:31;;;;;;;6.57;2.03;;;;;;;22.09;60.89;101536.38;5053327;28;20029;-43
2023/06/26 09:14:56;;;;;;;7.38;2.42;;;;;;;21.77;59.26;101533.13;5054120;28;20112;-43
2023/06/26 09:17:37;;;;;;;6.90;1.80;;;;;;;21.81;60.55;101547.94;5053975;28;20108;-42
2023/06/26 09:20:04;;;;;;;9.48;2.90;;;;;;;21.79;58.52;101548.84;5054649;28;20100;-43
2023/06/26 09:22:33;;;;;;;9.27;2.35;;;;;;;21.85;58.91;101544.41;5053878;28;20057;-47
2023/06/26 09:24:58;;;;;;;9.40;1.80;;;;;;;22.12;57.43;101542.50;5053300;28;20028;-46
2023/06/26 09:27:23;;;;;;;9.63;1.85;;;;;;;21.98;56.57;101532.09;5053762;28;20025;-43
2023/06/26 09:29:50;;;;;;;7.57;1.98;;;;;;;21.71;55.38;101547.13;5053819;28;20036;-43
2023/06/26 09:32:15;;;;;;;8.07;2.50;;;;;;;21.87;57.61;101552.28;5053377;28;20029;-47
2023/06/26 09:34:44;;;;;;;5.18;1.70;;;;;;;22.28;60.95;101551.13;5053736;28;20029;-46
2023/06/26 09:37:12;;;;;;;8.48;1.80;;;;;;;22.49;54.56;101557.09;5053872;28;20503;-47
2023/06/26 09:39:37;;;;;;;7.72;2.00;;;;;;;22.55;53.33;101564.06;5052770;28;20464;-48
2023/06/26 09:42:04;;;;;;;12.30;2.05;;;;;;;22.76;55.37;101556.00;5053826;28;20480;-49
2023/06/26 09:44:31;;;;;;;6.25;2.03;;;;;;;22.48;52.92;101569.38;5053322;28;20021;-43
2023/06/26 09:46:56;;;;;;;11.98;1.95;;;;;;;22.55;50.46;101569.34;5052882;28;20473;-49
2023/06/26 09:49:23;;;;;;;11.40;2.25;;;;;;;22.59;53.55;101578.91;5053842;28;20050;-48
2023/06/26 09:51:50;;;;;;;11.70;2.25;;;;;;;22.62;52.85;101579.78;5053559;28;20397;-44
2023/06/26 09:54:17;;;;;;;12.95;2.22;;;;;;;22.92;53.49;101593.50;5052763;28;20031;-43
2023/06/26 09:56:43;;;;;;;9.55;2.13;;;;;;;23.36;52.50;101583.41;5053203;28;20025;-46
2023/06/26 09:59:09;;;;;;;9.43;1.67;;;;;;;23.48;50.83;101585.03;5053097;28;20021;-43
2023/06/26 10:01:41;;;;;;;10.07;1.80;;;;;;;23.18;47.00;101595.03;5052487;28;20066;-44
2023/06/26 10:04:07;;;;;;;6.10;1.90;;;;;;;23.47;48.17;101588.53;5053344;28;20104;-45
2023/06/26 10:06:49;;;;;;;6.63;2.10;;;;;;;23.64;48.59;101599.72;5053024;28;20151;-46
2023/06/26 10:09:17;;;;;;;10.43;1.88;;;;;;;23.57;47.33;101589.31;5053090;28;20365;-44
2023/06/26 10:11:56;;;;;;;11.32;2.20;;;;;;;23.42;47.98;101595.63;5052812;28;20476;-48
2023/06/26 10:14:23;;;;;;;7.80;1.80;;;;;;;23.51;46.85;101603.38;5052452;28;20028;-44
2023/06/26 10:16:49;;;;;;;8.02;1.95;;;;;;;23.44;44.45;101602.59;5053150;28;20040;-48
2023/06/26 10:19:23;;;;;;;7.03;1.85;;;;;;;23.63;45.09;101605.03;5053109;28;20017;-43
2023/06/26 10:21:52;;;;;;;6.10;1.55;;;;;;;23.06;43.41;101600.38;5052016;28;20056;-48
2023/06/26 10:24:19;;;;;;;7.45;1.95;;;;;;;22.93;43.37;101599.63;5052908;28;20033;-44
2023/06/26 10:26:49;;;;;;;6.00;1.60;;;;;;;22.99;43.98;101610.94;5052822;28;20048;-42
2023/06/26 10:29:17;;;;;;;8.27;1.95;;;;;;;22.44;45.74;101611.44;5052089;28;20027;-46
2023/06/26 10:31:46;;;;;;;7.60;1.75;;;;;;;22.29;47.40;101602.75;5052610;28;20040;-43
2023/06/26 10:34:12;;;;;;;9.25;2.10;;;;;;;22.32;48.24;101602.75;5052814;28;20170;-48
2023/06/26 10:36:38;;;;;;;10.75;2.00;;;;;;;23.07;47.54;101602.13;5051690;28;20108;-43
2023/06/26 10:39:06;;;;;;;5.90;1.80;;;;;;;25.36;44.98;101599.63;5053054;28;20485;-47
2023/06/26 10:41:38;;;;;;;6.18;1.77;;;;;;;25.50;42.07;101607.28;5052485;28;20503;-47
2023/06/26 10:44:09;;;;;;;7.75;1.85;;;;;;;26.66;41.92;101616.94;5052079;28;20032;-47
2023/06/26 10:46:52;;;;;;;8.35;1.85;;;;;;;26.74;39.41;101630.88;5052481;28;20151;-49
2023/06/26 10:49:25;;;;;;;10.05;2.13;;;;;;;26.40;38.52;101627.28;5051850;28;20033;-48
2023/06/26 10:51:54;;;;;;;7.88;2.08;;;;;;;26.67;37.42;101624.84;5052783;28;20021;-45
2023/06/26 10:54:20;;;;;;;7.97;2.10;;;;;;;28.08;38.39;101623.59;5052456;28;20051;-46
2023/06/26 10:56:48;;;;;;;9.57;1.77;;;;;;;27.07;35.51;101628.25;5051550;28;20029;-48
2023/06/26 10:59:18;;;;;;;7.70;1.75;;;;;;;25.83;35.52;101622.41;5052492;28;20092;-48
2023/06/26 11:01:47;;;;;;;10.25;1.75;;;;;;;25.30;38.48;101620.81;5052223;28;20388;-45
2023/06/26 11:04:16;;;;;;;11.52;2.10;;;;;;;25.49;37.17;101637.19;5051889;28;20472;-43
2023/06/26 11:06:45;;;;;;;6.40;2.03;;;;;;;26.44;35.98;101636.88;5052412;28;20078;-44
2023/06/26 11:09:14;;;;;;;6.03;1.60;;;;;;;26.55;33.86;101646.31;5052552;28;20025;-47
2023/06/26 11:11:51;;;;;;;7.28;1.90;;;;;;;26.56;35.69;101654.19;5054793;28;20025;-44